Westgate, Iowa
Current Conditions -  °F | °C
As of 3:15 PM on Thursday 23 Oct 2014 (Local Time) from KOLZ Reporting Station
Haze Haze  
Wind Chill: 52°   Ceiling: 400
Heat Index: 52°   Visibility: 4mi
Dew Point: 52°   Wind: 7mph
Humidity: 100%   Direction: 220°SW
Pressure: 30.03"   Gusts: NA
Location:  42.77°N, 92°W
Report Text: KOLZ 232015Z AUTO 22006KT 4SM BR OVC004 11/11 A3003 RMK AO2
Loading
Personal Weather Stations






























Interactive Weather Map
Tropical Storm Tracking
New forecast layout! Learn more

10-Day Weather Forecast

Advertisements
Track Severe Weather on mobile